SANE/SDE METAR and TAF weather

Enter ICAO airport designator
Station Type Date Time Source
SANE METAR 2022/11/20 03:13 UTC NOAA

SANE 200313Z 23020G31KT 6000 RA BKN025 SCT030 23/19 Q1008


Station Type Date Time Source
SANE Decoded METAR 2022/11/20 03:13 UTC NOAA

Santiago Del Estero Aero., Argentina (SANE) 27-46S 064-18W 199M
Nov 19, 2022 - 10:13 PM EST / 2022.11.20 0313 UTC
Wind: from the SW (230 degrees) at 23 MPH (20 KT) gusting to 36 MPH (31 KT):0
Visibility: 3 mile(s):0
Sky conditions: mostly cloudy
Weather: rain
Temperature: 73 F (23 C)
Dew Point: 66 F (19 C)
Relative Humidity: 78%
Pressure (altimeter): 29.77 in. Hg (1008 hPa)
ob: SANE 200313Z 23020G31KT 6000 RA BKN025 SCT030 23/19 Q1008
cycle: 3

Station Type Date Time Source
SANE TAF 2022/11/26 12:15 UTC NOAA

TAF TAF SANE 261100Z 2612/2712 02010KT 9999 FEW040 TX38/2618Z TN20/2710Z
BECMG 2617/2620 05015KT
BECMG 2000/2003 VRB04KT CAVOK

Example: see airport list